Time;durP1;ratioP1;P1;durP2;ratioP2;P2;SDS_P1;SDS_P2;PMS_P1;PMS_P2;Temp;Humidity;BMP_temperature;BMP_pressure;BME280_temperature;BME280_humidity;BME280_pressure;Samples;Min_cycle;Max_cycle;Signal;HPM_P1;HPM_P2
2022/07/27 00:01:06;;;;;;;1.80;1.40;;;15.60;99.90;;;;;;5115005;28;20202;-71
2022/07/27 00:03:31;;;;;;;8.50;1.70;;;15.60;99.90;;;;;;5114781;28;20626;-70
2022/07/27 00:05:57;;;;;;;2.53;1.50;;;15.40;99.90;;;;;;5114871;28;20174;-70
2022/07/27 00:08:22;;;;;;;4.13;1.80;;;15.40;99.90;;;;;;5114681;28;20211;-70
2022/07/27 00:10:49;;;;;;;3.93;1.40;;;15.30;99.90;;;;;;5114769;28;20175;-70
2022/07/27 00:13:15;;;;;;;1.50;1.40;;;15.20;99.90;;;;;;5114576;28;20217;-70
2022/07/27 00:15:41;;;;;;;3.67;1.53;;;15.30;99.90;;;;;;5114766;28;20622;-70
2022/07/27 00:18:08;;;;;;;3.17;1.80;;;15.20;99.90;;;;;;5114393;28;20289;-70
2022/07/27 00:20:34;;;;;;;2.80;1.67;;;15.20;99.90;;;;;;5113607;28;20213;-70
2022/07/27 00:22:59;;;;;;;4.50;1.80;;;15.30;99.90;;;;;;5114635;28;20176;-70
2022/07/27 00:25:26;;;;;;;5.57;1.63;;;15.30;99.90;;;;;;5114394;28;20171;-70
2022/07/27 00:27:52;;;;;;;1.57;1.33;;;15.30;99.90;;;;;;5113180;28;20194;-70
2022/07/27 00:30:18;;;;;;;4.70;1.70;;;15.20;99.90;;;;;;5113501;28;20199;-70
2022/07/27 00:32:43;;;;;;;5.13;1.60;;;15.10;99.90;;;;;;5113304;28;20248;-70
2022/07/27 00:35:10;;;;;;;4.37;1.80;;;15.00;99.90;;;;;;5114041;28;20167;-70
2022/07/27 00:37:36;;;;;;;2.90;1.63;;;15.00;99.90;;;;;;5114141;28;20197;-70
2022/07/27 00:40:02;;;;;;;4.17;2.00;;;15.00;99.90;;;;;;5114169;28;20159;-70
2022/07/27 00:42:28;;;;;;;3.17;1.60;;;15.00;99.90;;;;;;5113785;28;20175;-70
2022/07/27 00:44:54;;;;;;;2.33;1.63;;;15.10;99.90;;;;;;5114004;28;20198;-70
2022/07/27 00:47:21;;;;;;;3.77;1.90;;;15.10;99.90;;;;;;5113540;28;20202;-70
2022/07/27 00:49:47;;;;;;;2.90;1.87;;;14.90;99.90;;;;;;5113352;28;20175;-70
2022/07/27 00:52:13;;;;;;;3.87;1.80;;;14.90;99.90;;;;;;5113357;28;20203;-70
2022/07/27 00:54:40;;;;;;;7.70;1.70;;;14.80;99.90;;;;;;5113410;28;20175;-70
2022/07/27 00:57:09;;;;;;;5.00;1.90;;;14.80;99.90;;;;;;5113129;28;20304;-70
2022/07/27 00:59:35;;;;;;;2.77;1.57;;;14.90;99.90;;;;;;5114038;28;20694;-70
2022/07/27 01:02:01;;;;;;;2.80;1.87;;;14.90;99.90;;;;;;5113914;28;20186;-69
2022/07/27 01:04:27;;;;;;;4.03;1.87;;;14.90;99.90;;;;;;5113923;28;20175;-71
2022/07/27 01:06:52;;;;;;;6.87;2.13;;;14.90;99.90;;;;;;5113807;28;20228;-70
2022/07/27 01:12:03;;;;;;;3.57;2.10;;;14.90;99.90;;;;;;5113666;28;20248;-70
2022/07/27 01:14:28;;;;;;;4.43;1.83;;;14.80;99.90;;;;;;5113860;28;20187;-70
2022/07/27 01:16:54;;;;;;;4.13;1.50;;;14.60;99.90;;;;;;5113674;28;20159;-70
2022/07/27 01:19:20;;;;;;;3.43;1.77;;;14.60;99.90;;;;;;5113805;28;20210;-70
2022/07/27 01:21:45;;;;;;;3.33;1.90;;;14.50;99.90;;;;;;5113620;28;20166;-69
2022/07/27 01:24:11;;;;;;;3.67;1.80;;;14.60;99.90;;;;;;5113409;28;20641;-70
2022/07/27 01:26:40;;;;;;;6.97;2.40;;;14.50;99.90;;;;;;5095372;28;20222;-70
2022/07/27 01:29:05;;;;;;;4.43;1.80;;;14.40;99.90;;;;;;5113573;28;20687;-70
2022/07/27 01:31:31;;;;;;;5.20;1.90;;;14.40;99.90;;;;;;5116277;28;20178;-70
2022/07/27 01:33:58;;;;;;;2.07;1.90;;;14.40;99.90;;;;;;5117763;28;20757;-70
2022/07/27 01:36:24;;;;;;;4.90;1.83;;;14.40;99.90;;;;;;5117766;28;20164;-70
2022/07/27 01:38:49;;;;;;;5.13;1.83;;;14.40;99.90;;;;;;5117422;28;20163;-70
2022/07/27 01:41:15;;;;;;;3.67;1.70;;;14.40;99.90;;;;;;5117516;28;20167;-69
2022/07/27 01:43:40;;;;;;;5.07;1.67;;;14.40;99.90;;;;;;5117634;28;20175;-70
2022/07/27 01:46:06;;;;;;;5.43;2.10;;;14.50;99.90;;;;;;5117656;28;20652;-69
2022/07/27 01:48:32;;;;;;;7.90;1.80;;;14.40;99.90;;;;;;5117723;28;20170;-70
2022/07/27 01:50:58;;;;;;;3.30;1.80;;;14.40;99.90;;;;;;5117460;28;20192;-70
2022/07/27 01:53:23;;;;;;;1.87;1.70;;;14.40;99.90;;;;;;5116973;28;20203;-70
2022/07/27 01:55:50;;;;;;;3.77;1.77;;;14.40;99.90;;;;;;5117351;28;20179;-70
2022/07/27 01:58:16;;;;;;;2.73;1.70;;;14.40;99.90;;;;;;5117377;28;20167;-70
2022/07/27 02:00:43;;;;;;;6.17;1.70;;;14.40;99.90;;;;;;5117453;28;20171;-71
2022/07/27 02:03:09;;;;;;;4.90;2.03;;;14.40;99.90;;;;;;5117332;28;20259;-71
2022/07/27 02:05:35;;;;;;;3.87;1.60;;;14.40;99.90;;;;;;5117219;28;20167;-70
2022/07/27 02:08:01;;;;;;;5.60;2.00;;;14.30;99.90;;;;;;5116771;28;20251;-71
2022/07/27 02:10:27;;;;;;;2.53;1.70;;;14.20;99.90;;;;;;5117070;28;20179;-71
2022/07/27 02:12:53;;;;;;;3.13;2.03;;;14.20;99.90;;;;;;5098775;28;20629;-71
2022/07/27 02:15:22;;;;;;;6.53;1.83;;;14.20;99.90;;;;;;5117119;28;20175;-70
2022/07/27 02:17:48;;;;;;;4.23;1.80;;;14.20;99.90;;;;;;5117034;28;20163;-70
2022/07/27 02:20:16;;;;;;;3.40;1.80;;;14.20;99.90;;;;;;5116911;28;20614;-70
2022/07/27 02:22:44;;;;;;;3.80;1.97;;;14.20;99.90;;;;;;5116343;28;20284;-70
2022/07/27 02:25:11;;;;;;;4.23;1.80;;;14.10;99.90;;;;;;5116547;28;20191;-70
2022/07/27 02:27:37;;;;;;;3.53;1.97;;;14.10;99.90;;;;;;5116894;28;20695;-70
2022/07/27 02:30:04;;;;;;;2.50;1.83;;;14.10;99.90;;;;;;5116876;28;20175;-71
2022/07/27 02:32:30;;;;;;;4.00;2.07;;;14.00;99.90;;;;;;5116539;28;20198;-70
2022/07/27 02:34:55;;;;;;;7.43;2.00;;;14.00;99.90;;;;;;5116489;28;20182;-70
2022/07/27 02:37:21;;;;;;;2.63;2.13;;;14.00;99.90;;;;;;5116313;28;20198;-70
2022/07/27 02:39:47;;;;;;;5.30;2.10;;;14.00;99.90;;;;;;5116269;28;20375;-69
2022/07/27 02:42:13;;;;;;;5.53;1.87;;;13.90;99.90;;;;;;5115148;28;20168;-70
2022/07/27 02:44:38;;;;;;;5.57;2.20;;;14.00;99.90;;;;;;5098158;28;20175;-70
2022/07/27 02:47:04;;;;;;;4.60;2.20;;;14.00;99.90;;;;;;5116704;28;20178;-70
2022/07/27 02:49:29;;;;;;;5.73;1.90;;;14.10;99.90;;;;;;5116439;28;20634;-70
2022/07/27 02:51:55;;;;;;;3.17;1.90;;;14.10;99.90;;;;;;5115855;28;20159;-70
2022/07/27 02:54:23;;;;;;;4.10;2.13;;;14.00;99.90;;;;;;5115985;28;20183;-70
2022/07/27 02:56:50;;;;;;;6.67;2.40;;;14.00;99.90;;;;;;5116172;28;20250;-71
2022/07/27 02:59:17;;;;;;;3.17;2.07;;;14.00;99.90;;;;;;5116289;28;20176;-71
2022/07/27 03:01:43;;;;;;;3.00;2.00;;;14.00;99.90;;;;;;5116008;28;20622;-71
2022/07/27 03:04:08;;;;;;;3.87;2.03;;;13.90;99.90;;;;;;5116038;28;20172;-70
2022/07/27 03:06:34;;;;;;;5.40;2.17;;;13.80;99.90;;;;;;5115666;28;20246;-70
2022/07/27 03:09:01;;;;;;;4.50;2.07;;;13.80;99.90;;;;;;5097388;28;20753;-71
2022/07/27 03:11:26;;;;;;;4.30;2.53;;;13.70;99.90;;;;;;5115869;28;20171;-70
2022/07/27 03:13:52;;;;;;;6.37;2.27;;;13.70;99.90;;;;;;5115885;28;20206;-70
2022/07/27 03:16:18;;;;;;;5.30;2.27;;;13.60;99.90;;;;;;5115911;28;20205;-70
2022/07/27 03:18:43;;;;;;;7.83;2.33;;;13.60;99.90;;;;;;5115879;28;20167;-70
2022/07/27 03:21:09;;;;;;;3.40;1.97;;;13.60;99.90;;;;;;5115179;28;20171;-70
2022/07/27 03:23:34;;;;;;;5.13;2.50;;;13.60;99.90;;;;;;5115398;28;20614;-70
2022/07/27 03:26:00;;;;;;;7.50;2.47;;;13.60;99.90;;;;;;5097337;28;20175;-70
2022/07/27 03:28:26;;;;;;;4.87;2.33;;;13.70;99.90;;;;;;5115706;28;20258;-70
2022/07/27 03:30:51;;;;;;;5.10;2.07;;;13.70;99.90;;;;;;5115110;28;20254;-70
2022/07/27 03:33:17;;;;;;;3.83;2.37;;;13.70;99.90;;;;;;5115638;28;20206;-70
2022/07/27 03:35:43;;;;;;;6.07;2.63;;;13.70;99.90;;;;;;5115171;28;20176;-70
2022/07/27 03:38:08;;;;;;;5.70;2.70;;;13.70;99.90;;;;;;5115415;28;20649;-70
2022/07/27 03:40:34;;;;;;;4.20;2.77;;;13.60;99.90;;;;;;5097445;28;20167;-71
2022/07/27 03:43:00;;;;;;;6.37;3.00;;;13.50;99.90;;;;;;5115089;28;20533;-70
2022/07/27 03:45:26;;;;;;;4.10;2.63;;;13.50;99.90;;;;;;5115274;28;20175;-70
2022/07/27 03:47:51;;;;;;;5.07;2.90;;;13.50;99.90;;;;;;5115120;28;20527;-70
2022/07/27 03:50:17;;;;;;;6.40;2.73;;;13.50;99.90;;;;;;5114776;28;20167;-70
2022/07/27 03:52:43;;;;;;;8.50;2.87;;;13.50;99.90;;;;;;5115003;28;20227;-71
2022/07/27 03:55:08;;;;;;;7.43;2.70;;;13.50;99.90;;;;;;5114729;28;20642;-70
2022/07/27 03:57:34;;;;;;;12.23;2.97;;;13.50;99.90;;;;;;5096508;28;20178;-70
2022/07/27 04:00:00;;;;;;;5.90;2.50;;;13.50;99.90;;;;;;5114771;28;20171;-71
2022/07/27 04:02:25;;;;;;;6.70;2.80;;;13.50;99.90;;;;;;5114629;28;20614;-71
2022/07/27 04:04:51;;;;;;;7.13;2.83;;;13.50;99.90;;;;;;5114682;28;20293;-71
2022/07/27 04:07:17;;;;;;;5.20;2.97;;;13.50;99.90;;;;;;5114417;28;20638;-70
2022/07/27 04:09:42;;;;;;;8.33;2.80;;;13.60;99.90;;;;;;5114019;28;20211;-70
2022/07/27 04:12:08;;;;;;;8.77;2.90;;;13.60;99.90;;;;;;5095735;28;20209;-70
2022/07/27 04:14:34;;;;;;;6.77;3.00;;;13.60;99.90;;;;;;5114601;28;20626;-70
2022/07/27 04:17:00;;;;;;;7.83;2.70;;;13.80;99.90;;;;;;5114507;28;20178;-70
2022/07/27 04:19:25;;;;;;;11.57;3.33;;;13.80;99.90;;;;;;5114022;28;20661;-70
2022/07/27 04:21:51;;;;;;;9.67;3.50;;;13.90;99.90;;;;;;5114026;28;20194;-70
2022/07/27 04:24:17;;;;;;;7.60;3.30;;;14.00;99.90;;;;;;5114475;28;20637;-70
2022/07/27 04:26:42;;;;;;;6.97;3.33;;;14.20;99.90;;;;;;5114217;28;20167;-70
2022/07/27 04:29:08;;;;;;;3.87;2.83;;;14.60;99.90;;;;;;5114291;28;20182;-70
2022/07/27 04:31:33;;;;;;;5.97;3.00;;;15.20;99.90;;;;;;5095858;28;20182;-70
2022/07/27 04:33:59;;;;;;;10.70;3.00;;;16.10;99.90;;;;;;5113674;28;20210;-70
2022/07/27 04:36:25;;;;;;;12.80;2.80;;;16.90;99.90;;;;;;5113836;28;20183;-69
2022/07/27 04:38:50;;;;;;;7.67;2.60;;;17.60;99.90;;;;;;5113733;28;20175;-70
2022/07/27 04:41:16;;;;;;;9.13;2.43;;;18.50;99.90;;;;;;5113851;28;20206;-70
2022/07/27 04:43:41;;;;;;;6.83;2.57;;;19.50;99.90;;;;;;5113952;28;20210;-70
2022/07/27 04:46:07;;;;;;;8.13;2.85;;;20.50;99.90;;;;;;5113678;28;20178;-70
2022/07/27 04:48:34;;;;;;;6.32;2.42;;;21.40;99.90;;;;;;5113554;28;20618;-70
2022/07/27 04:51:00;;;;;;;7.18;2.35;;;22.40;99.50;;;;;;5113600;28;20171;-71
2022/07/27 04:53:25;;;;;;;10.65;4.72;;;22.90;1.00;;;;;;5113093;28;20207;-71
2022/07/27 04:55:51;;;;;;;4.32;2.63;;;23.30;99.90;;;;;;5113673;28;20171;-71
2022/07/27 04:58:17;;;;;;;8.77;2.60;;;24.20;1.00;;;;;;5113035;28;20171;-71
2022/07/27 05:00:43;;;;;;;6.88;2.67;;;24.90;1.00;;;;;;5113477;28;20167;-71
2022/07/27 05:03:09;;;;;;;10.07;2.50;;;25.00;1.00;;;;;;5113218;28;20216;-72
2022/07/27 05:05:35;;;;;;;2.92;1.88;;;25.10;99.90;;;;;;5112768;28;20163;-71
2022/07/27 05:08:01;;;;;;;10.38;2.42;;;24.20;1.00;;;;;;5113431;28;20276;-72
2022/07/27 05:10:26;;;;;;;6.72;2.42;;;23.80;1.00;;;;;;5112955;28;20168;-72
2022/07/27 05:12:52;;;;;;;3.08;2.13;;;23.50;1.00;;;;;;5094968;28;20260;-72
2022/07/27 05:15:18;;;;;;;7.13;2.45;;;23.50;1.00;;;;;;5113144;28;20254;-72
2022/07/27 05:17:44;;;;;;;4.30;2.30;;;24.50;1.00;;;;;;5112999;28;20190;-73
2022/07/27 05:20:10;;;;;;;4.90;2.03;;;25.30;99.90;;;;;;5113270;28;20648;-73
2022/07/27 05:22:36;;;;;;;6.13;2.00;;;26.20;99.90;;;;;;5094984;28;20174;-73
2022/07/27 05:25:02;;;;;;;5.35;2.10;;;25.70;99.90;;;;;;5094529;28;20183;-72
2022/07/27 05:27:27;;;;;;;5.93;1.90;;;26.40;99.90;;;;;;5113122;28;20171;-72
2022/07/27 05:29:53;;;;;;;5.82;1.73;;;26.60;99.90;;;;;;5113374;28;20174;-72
2022/07/27 05:32:18;;;;;;;3.70;1.67;;;27.30;99.90;;;;;;5112437;28;20203;-72
2022/07/27 05:34:45;;;;;;;4.38;1.90;;;27.10;99.90;;;;;;5112834;28;20597;-73
2022/07/27 05:37:11;;;;;;;5.22;1.70;;;28.20;99.90;;;;;;5113479;28;20183;-73
2022/07/27 05:39:37;;;;;;;4.72;1.63;;;27.40;99.90;;;;;;5112929;28;20168;-75
2022/07/27 05:42:04;;;;;;;5.05;1.63;;;26.60;99.90;;;;;;5113050;28;20159;-75
2022/07/27 05:44:30;;;;;;;3.95;1.60;;;27.20;99.90;;;;;;5112917;28;20262;-74
2022/07/27 05:46:55;;;;;;;2.90;2.00;;;26.80;99.90;;;;;;5112297;28;20171;-75
2022/07/27 05:49:21;;;;;;;5.63;1.83;;;27.70;99.90;;;;;;5112777;28;20175;-75
2022/07/27 05:51:47;;;;;;;9.77;2.13;;;28.00;99.90;;;;;;5113059;28;20163;-74
2022/07/27 05:54:13;;;;;;;3.50;1.60;;;28.90;99.90;;;;;;5112542;28;20256;-74
2022/07/27 05:56:40;;;;;;;5.10;1.88;;;27.90;99.90;;;;;;5112542;28;20167;-75
2022/07/27 05:59:05;;;;;;;4.45;1.95;;;28.10;99.90;;;;;;5112463;28;20207;-74
2022/07/27 06:01:31;;;;;;;5.75;2.40;;;27.60;99.90;;;;;;5112359;28;20656;-73
2022/07/27 06:03:56;;;;;;;6.20;2.05;;;27.30;99.90;;;;;;5112082;28;20209;-74
2022/07/27 06:09:06;;;;;;;4.38;2.38;;;27.20;99.90;;;;;;5112082;28;20625;-74
2022/07/27 06:11:32;;;;;;;7.55;2.15;;;27.30;99.90;;;;;;5111824;28;20167;-74
2022/07/27 06:13:57;;;;;;;7.05;2.30;;;27.30;99.90;;;;;;5111854;28;20266;-74
2022/07/27 06:16:23;;;;;;;4.10;2.30;;;28.60;99.90;;;;;;5111881;28;20164;-75
2022/07/27 06:18:49;;;;;;;5.82;2.00;;;30.00;99.90;;;;;;5115557;28;20180;-75
2022/07/27 06:21:15;;;;;;;4.45;2.17;;;30.20;99.90;;;;;;5116374;28;20622;-75
2022/07/27 06:23:40;;;;;;;5.78;1.63;;;30.60;99.90;;;;;;5115972;28;20182;-74
2022/07/27 06:26:06;;;;;;;6.03;2.00;;;30.50;99.90;;;;;;5115985;28;20171;-75
2022/07/27 06:28:32;;;;;;;4.10;1.67;;;30.90;99.90;;;;;;5116024;28;20192;-75
2022/07/27 06:30:58;;;;;;;5.78;1.90;;;29.70;99.90;;;;;;5115350;28;20167;-75
2022/07/27 06:33:27;;;;;;;6.45;1.75;;;27.80;99.90;;;;;;5097676;28;20207;-75
2022/07/27 06:35:58;;;;;;;4.03;1.65;;;29.20;99.90;;;;;;5097652;28;20225;-75
2022/07/27 06:38:24;;;;;;;5.68;2.05;;;29.80;99.90;;;;;;5115713;28;20190;-76
2022/07/27 06:40:52;;;;;;;3.58;1.50;;;30.20;99.90;;;;;;5115849;28;20203;-75
2022/07/27 06:43:23;;;;;;;5.13;1.60;;;29.20;99.90;;;;;;5115585;28;20167;-75
2022/07/27 06:45:49;;;;;;;6.75;2.00;;;28.20;99.90;;;;;;5115228;28;20489;-75
2022/07/27 06:48:15;;;;;;;7.68;2.10;;;28.30;99.90;;;;;;5097407;28;20178;-76
2022/07/27 06:50:42;;;;;;;6.00;2.25;;;28.40;99.90;;;;;;5097581;28;20578;-74
2022/07/27 06:53:07;;;;;;;6.45;1.45;;;28.00;99.90;;;;;;5115870;28;20203;-76
2022/07/27 06:55:33;;;;;;;5.15;3.25;;;28.10;99.90;;;;;;5115001;28;20179;-76
2022/07/27 06:57:59;;;;;;;5.50;2.13;;;28.50;99.90;;;;;;5115512;28;20174;-77
2022/07/27 07:00:25;;;;;;;4.30;1.80;;;29.40;99.90;;;;;;5096685;28;20216;-77
2022/07/27 07:03:01;;;;;;;4.35;2.15;;;29.90;99.90;;;;;;5115184;28;20171;-77
2022/07/27 07:05:29;;;;;;;4.40;1.70;;;30.10;99.90;;;;;;5115424;28;20219;-77
2022/07/27 07:07:55;;;;;;;4.35;1.83;;;29.20;99.90;;;;;;5115543;28;20686;-77
2022/07/27 07:10:22;;;;;;;6.63;1.35;;;30.60;99.90;;;;;;5115719;28;20183;-77
2022/07/27 07:12:47;;;;;;;5.50;1.30;;;31.60;91.10;;;;;;5096607;28;20206;-76
2022/07/27 07:15:13;;;;;;;5.38;1.30;;;29.60;93.20;;;;;;5115889;28;20239;-73
2022/07/27 07:17:39;;;;;;;4.43;1.80;;;26.80;99.90;;;;;;5096979;28;20663;-73
2022/07/27 07:20:06;;;;;;;5.53;1.40;;;26.60;99.90;;;;;;5115161;28;20174;-74
2022/07/27 07:22:33;;;;;;;8.27;1.67;;;27.10;99.90;;;;;;5096910;28;20484;-74
2022/07/27 07:24:59;;;;;;;5.25;1.60;;;26.40;99.90;;;;;;5115182;28;20177;-73
2022/07/27 07:27:26;;;;;;;5.45;1.40;;;26.10;99.90;;;;;;5115306;28;20167;-73
2022/07/27 07:29:51;;;;;;;7.38;1.65;;;26.00;99.90;;;;;;5114131;28;20218;-73
2022/07/27 07:32:21;;;;;;;2.53;1.40;;;25.40;99.90;;;;;;5115044;28;20627;-72
2022/07/27 07:34:51;;;;;;;5.40;1.48;;;23.70;99.90;;;;;;5115155;28;20183;-71
2022/07/27 07:37:18;;;;;;;1.50;1.00;;;22.80;1.00;;;;;;5115137;28;20195;-71
2022/07/27 07:39:45;;;;;;;3.25;0.98;;;21.90;1.00;;;;;;5114363;28;20176;-71
2022/07/27 07:42:11;;;;;;;3.85;1.13;;;21.60;1.00;;;;;;5114065;28;20175;-71
2022/07/27 07:44:37;;;;;;;3.00;1.27;;;21.40;1.00;;;;;;5115244;28;20250;-71
2022/07/27 07:47:03;;;;;;;3.38;0.98;;;21.50;99.90;;;;;;5079219;28;20174;-71
2022/07/27 07:49:29;;;;;;;3.75;1.30;;;21.50;99.90;;;;;;5115066;28;20178;-72
2022/07/27 07:51:54;;;;;;;1.25;0.95;;;22.00;99.90;;;;;;5114634;28;20523;-71
2022/07/27 07:54:20;;;;;;;4.18;1.42;;;22.20;1.00;;;;;;5095370;28;20211;-77
2022/07/27 07:56:45;;;;;;;4.25;1.50;;;22.30;1.00;;;;;;5114454;28;20525;-76
2022/07/27 07:59:11;;;;;;;2.70;1.10;;;22.90;1.00;;;;;;5096081;28;20179;-76
2022/07/27 08:01:37;;;;;;;3.55;1.10;;;24.60;99.90;;;;;;5096199;28;20642;-78
2022/07/27 08:04:02;;;;;;;2.97;1.10;;;25.80;99.90;;;;;;5114318;28;20163;-77
2022/07/27 08:06:28;;;;;;;3.97;1.27;;;26.60;99.90;;;;;;5114099;28;20634;-75
2022/07/27 08:08:54;;;;;;;3.03;1.20;;;27.80;99.90;;;;;;5114246;28;20246;-76
2022/07/27 08:11:19;;;;;;;3.97;1.67;;;28.40;99.90;;;;;;5113781;28;20626;-75
2022/07/27 08:13:46;;;;;;;4.18;1.10;;;30.20;99.90;;;;;;5114124;28;20712;-77
2022/07/27 08:16:11;;;;;;;1.55;1.10;;;29.10;99.90;;;;;;5114096;28;20178;-77
2022/07/27 08:18:37;;;;;;;3.65;1.20;;;28.20;99.90;;;;;;5113794;28;20167;-77
2022/07/27 08:21:02;;;;;;;2.75;1.35;;;26.60;99.90;;;;;;5114448;28;20629;-77
2022/07/27 08:23:30;;;;;;;1.73;1.10;;;27.00;99.90;;;;;;5114247;28;20678;-76
2022/07/27 08:25:56;;;;;;;3.72;1.33;;;27.80;99.90;;;;;;5113972;28;20159;-75
2022/07/27 08:28:22;;;;;;;4.25;1.23;;;28.30;99.90;;;;;;5113894;28;20182;-77
2022/07/27 08:30:48;;;;;;;3.95;1.90;;;29.80;99.90;;;;;;5113935;28;20163;-75
2022/07/27 08:33:13;;;;;;;2.67;1.48;;;31.70;99.90;;;;;;5113698;28;20538;-75
2022/07/27 08:35:39;;;;;;;4.53;1.35;;;33.00;88.20;;;;;;5114366;28;20649;-79
2022/07/27 08:38:08;;;;;;;2.95;1.30;;;33.10;59.70;;;;;;5113599;28;20195;-79
2022/07/27 08:40:35;;;;;;;5.15;1.42;;;31.30;58.40;;;;;;5111389;28;20163;-81
2022/07/27 08:43:01;;;;;;;2.85;1.35;;;29.30;71.90;;;;;;5113915;28;20171;-82
2022/07/27 08:45:27;;;;;;;2.35;0.82;;;28.30;85.60;;;;;;5113816;28;20515;-80
2022/07/27 08:47:54;;;;;;;3.15;1.10;;;26.90;85.10;;;;;;5113470;28;20184;-77
2022/07/27 08:50:24;;;;;;;2.92;1.27;;;25.20;99.30;;;;;;5114078;28;20168;-78
2022/07/27 08:52:58;;;;;;;3.13;1.10;;;25.40;99.90;;;;;;5095172;28;20510;-79
2022/07/27 08:55:27;;;;;;;3.75;1.10;;;25.80;99.90;;;;;;5113177;28;20194;-77
2022/07/27 08:57:52;;;;;;;3.22;1.23;;;26.10;99.90;;;;;;5113722;28;20246;-78
2022/07/27 09:00:19;;;;;;;2.95;1.20;;;25.80;99.90;;;;;;5112898;28;20262;-78
2022/07/27 09:02:45;;;;;;;3.00;1.05;;;25.30;99.90;;;;;;5113543;28;20172;-73
2022/07/27 09:05:11;;;;;;;1.13;1.10;;;26.50;99.90;;;;;;5112897;28;20186;-79
2022/07/27 09:07:37;;;;;;;3.00;1.75;;;27.30;99.90;;;;;;5112869;28;20566;-78
2022/07/27 09:10:04;;;;;;;2.08;1.20;;;27.70;99.90;;;;;;5113017;28;20171;-79
2022/07/27 09:12:31;;;;;;;2.05;1.05;;;28.30;96.40;;;;;;5112797;28;20211;-78
2022/07/27 09:15:13;;;;;;;2.92;1.00;;;27.70;93.10;;;;;;5113601;28;20170;-77
2022/07/27 09:17:40;;;;;;;3.28;1.35;;;27.00;94.80;;;;;;5112707;28;20242;-77
2022/07/27 09:20:10;;;;;;;1.45;1.20;;;25.90;99.90;;;;;;5113093;28;20211;-76
2022/07/27 09:22:53;;;;;;;2.50;1.42;;;25.10;99.90;;;;;;5112878;28;20262;-76
2022/07/27 09:25:26;;;;;;;2.65;1.10;;;22.50;99.90;;;;;;5113321;28;20269;-76
2022/07/27 09:27:54;;;;;;;1.55;1.10;;;22.00;1.00;;;;;;5093665;28;20699;-76
2022/07/27 09:30:20;;;;;;;2.67;0.90;;;21.80;1.00;;;;;;5113168;28;20169;-75
2022/07/27 09:32:56;;;;;;;2.60;1.27;;;21.50;1.00;;;;;;5112750;28;20223;-76
2022/07/27 09:35:27;;;;;;;2.35;1.02;;;21.30;1.00;;;;;;5113288;28;20653;-76
2022/07/27 09:37:53;;;;;;;1.38;0.70;;;22.00;1.00;;;;;;5094202;28;20244;-76
2022/07/27 09:40:22;;;;;;;1.67;1.00;;;21.80;99.90;;;;;;5112415;28;20167;-76
2022/07/27 09:43:09;;;;;;;1.63;1.23;;;22.40;99.90;;;;;;5112837;28;20174;-77
2022/07/27 09:45:36;;;;;;;3.88;1.02;;;22.10;99.90;;;;;;5113133;28;20224;-76
2022/07/27 09:48:17;;;;;;;2.75;1.10;;;22.10;1.00;;;;;;5112770;28;20204;-77
2022/07/27 09:51:04;;;;;;;4.28;1.40;;;21.70;1.00;;;;;;5113201;28;20191;-77
2022/07/27 09:53:31;;;;;;;2.92;1.13;;;22.50;1.00;;;;;;5116182;28;20203;-77
2022/07/27 09:56:03;;;;;;;1.27;1.17;;;22.90;99.90;;;;;;5116465;28;20167;-79
2022/07/27 09:58:42;;;;;;;2.13;1.05;;;24.20;99.90;;;;;;5117265;28;20306;-75
2022/07/27 10:01:16;;;;;;;1.48;0.90;;;26.40;99.90;;;;;;5116612;28;20219;-80
2022/07/27 10:03:43;;;;;;;2.50;1.27;;;27.90;99.90;;;;;;5116826;28;20173;-78
2022/07/27 10:06:11;;;;;;;2.42;1.08;;;28.50;99.90;;;;;;5116425;28;20201;-79
2022/07/27 10:08:39;;;;;;;1.70;1.05;;;29.20;99.90;;;;;;5116347;28;20226;-81
2022/07/27 10:11:05;;;;;;;1.60;0.80;;;27.10;99.90;;;;;;5116828;28;20203;-80
2022/07/27 10:13:31;;;;;;;1.65;1.10;;;26.50;99.90;;;;;;5116528;28;20202;-79
2022/07/27 10:15:58;;;;;;;3.30;1.10;;;26.50;99.90;;;;;;5116759;28;20160;-77
2022/07/27 10:19:00;;;;;;;3.30;1.00;;;26.50;99.90;;;;;;5116189;28;20254;-78
2022/07/27 10:21:26;;;;;;;2.25;1.10;;;26.10;99.90;;;;;;5116346;28;20174;-77
2022/07/27 10:24:07;;;;;;;2.63;1.05;;;26.80;99.90;;;;;;5098156;28;20167;-78
2022/07/27 10:26:41;;;;;;;2.67;1.10;;;26.50;99.90;;;;;;5116320;28;20171;-76
2022/07/27 10:29:13;;;;;;;1.77;1.20;;;25.70;99.90;;;;;;5116182;28;20167;-78
2022/07/27 10:31:42;;;;;;;3.40;1.00;;;24.60;99.90;;;;;;5116047;28;20171;-78
2022/07/27 10:34:11;;;;;;;3.90;1.40;;;23.40;99.90;;;;;;5098067;28;20301;-78
2022/07/27 10:36:47;;;;;;;2.17;1.20;;;23.70;99.90;;;;;;5115719;28;20183;-77
2022/07/27 10:39:31;;;;;;;1.10;1.00;;;23.80;99.90;;;;;;5115934;28;20178;-77
2022/07/27 10:42:27;;;;;;;2.70;0.82;;;23.40;99.90;;;;;;5116414;28;20170;-76
2022/07/27 10:44:59;;;;;;;2.42;1.30;;;22.40;99.90;;;;;;5106022;28;20182;-78
2022/07/27 10:47:30;;;;;;;2.90;1.73;;;21.90;99.90;;;;;;5115745;28;20167;-77
2022/07/27 10:50:14;;;;;;;1.83;1.60;;;22.20;99.90;;;;;;5115265;28;20626;-77
2022/07/27 10:52:44;;;;;;;1.40;1.00;;;22.80;99.90;;;;;;5115665;28;20198;-78
2022/07/27 10:55:30;;;;;;;3.90;1.30;;;24.00;99.90;;;;;;5115181;28;20172;-77
2022/07/27 10:58:14;;;;;;;3.65;1.38;;;24.40;99.90;;;;;;5115845;28;20174;-77
2022/07/27 11:00:48;;;;;;;2.47;1.60;;;24.40;99.90;;;;;;5115155;28;20519;-76
2022/07/27 11:03:26;;;;;;;1.67;1.40;;;24.30;99.90;;;;;;5114393;28;20561;-77
2022/07/27 11:06:07;;;;;;;2.42;1.40;;;23.70;99.90;;;;;;5114830;28;20263;-77
2022/07/27 11:08:42;;;;;;;3.17;1.80;;;23.60;99.90;;;;;;5115367;28;20211;-77
2022/07/27 11:11:15;;;;;;;1.90;1.50;;;24.00;99.90;;;;;;5115265;28;20171;-79
2022/07/27 11:13:41;;;;;;;2.33;1.95;;;24.90;99.90;;;;;;5080786;28;20222;-79
2022/07/27 11:16:10;;;;;;;2.50;1.42;;;25.90;99.90;;;;;;5115171;28;20164;-79
2022/07/27 11:18:38;;;;;;;2.47;1.40;;;26.70;99.90;;;;;;5114965;28;20172;-80
2022/07/27 11:21:29;;;;;;;2.08;1.60;;;27.40;99.90;;;;;;5115608;28;20163;-80
2022/07/27 11:24:19;;;;;;;4.13;1.88;;;27.40;99.90;;;;;;5115717;28;20172;-77
2022/07/27 11:26:50;;;;;;;3.35;1.60;;;27.20;99.90;;;;;;5115281;28;20159;-77
2022/07/27 11:29:18;;;;;;;1.70;1.60;;;26.60;99.90;;;;;;5115355;28;20174;-77
2022/07/27 11:31:46;;;;;;;3.13;1.65;;;26.10;99.90;;;;;;5114727;28;20206;-77
2022/07/27 11:34:16;;;;;;;3.22;1.27;;;25.50;99.90;;;;;;5114611;28;20203;-76
2022/07/27 11:36:44;;;;;;;1.75;1.30;;;25.20;99.90;;;;;;5114890;28;20277;-77
2022/07/27 11:39:14;;;;;;;2.70;1.50;;;24.70;99.90;;;;;;5096462;28;20190;-77
2022/07/27 11:41:40;;;;;;;2.08;1.30;;;24.30;99.90;;;;;;5114932;28;20200;-77
2022/07/27 11:44:11;;;;;;;2.85;1.40;;;23.30;99.90;;;;;;5115196;28;20163;-76
2022/07/27 11:46:43;;;;;;;2.22;1.23;;;22.90;99.90;;;;;;5096085;28;20301;-76
2022/07/27 11:49:14;;;;;;;1.60;1.20;;;22.80;99.90;;;;;;5114786;28;20166;-76
2022/07/27 11:51:42;;;;;;;2.22;1.70;;;21.90;99.90;;;;;;5114376;28;20171;-76
2022/07/27 11:54:22;;;;;;;3.63;1.50;;;22.30;99.90;;;;;;5096013;28;20266;-76
2022/07/27 11:56:56;;;;;;;4.57;1.63;;;22.50;99.90;;;;;;5113698;28;20160;-77
2022/07/27 11:59:25;;;;;;;3.17;1.63;;;23.10;99.90;;;;;;5114677;28;20170;-77
2022/07/27 12:01:57;;;;;;;5.03;2.53;;;23.60;99.90;;;;;;5114489;28;20163;-76
2022/07/27 12:04:29;;;;;;;3.30;2.05;;;23.80;99.90;;;;;;5113845;28;20653;-77
2022/07/27 12:07:15;;;;;;;3.40;1.65;;;24.30;99.90;;;;;;5114601;28;20171;-77
2022/07/27 12:09:55;;;;;;;3.65;1.60;;;24.50;99.90;;;;;;5113960;28;20219;-77
2022/07/27 12:12:24;;;;;;;2.20;1.50;;;24.60;99.90;;;;;;5114113;28;20170;-78
2022/07/27 12:15:00;;;;;;;1.98;1.20;;;24.50;99.90;;;;;;5113384;28;20266;-78
2022/07/27 12:17:25;;;;;;;1.92;1.60;;;24.00;99.90;;;;;;5113570;28;20163;-78
2022/07/27 12:20:02;;;;;;;2.65;1.55;;;23.60;99.90;;;;;;5114338;28;20303;-79
2022/07/27 12:22:45;;;;;;;2.53;1.38;;;23.60;99.90;;;;;;5095748;28;20167;-78
2022/07/27 12:25:17;;;;;;;2.60;1.10;;;23.90;99.90;;;;;;5114173;28;20159;-78
2022/07/27 12:27:55;;;;;;;2.70;1.27;;;23.00;99.90;;;;;;5114536;28;20163;-77
2022/07/27 12:30:32;;;;;;;5.75;1.88;;;22.80;99.90;;;;;;5114040;28;20191;-77
2022/07/27 12:32:59;;;;;;;1.50;1.30;;;22.90;99.90;;;;;;5113317;28;20281;-78
2022/07/27 12:35:28;;;;;;;1.80;1.38;;;22.60;99.90;;;;;;5113187;28;20274;-77
2022/07/27 12:37:58;;;;;;;1.20;1.10;;;22.90;99.90;;;;;;5113843;28;20265;-76
2022/07/27 12:40:24;;;;;;;2.78;1.35;;;23.30;99.90;;;;;;5112955;28;20167;-77
2022/07/27 12:43:04;;;;;;;4.82;1.30;;;23.50;99.90;;;;;;5113681;28;20175;-77
2022/07/27 12:45:37;;;;;;;1.23;1.10;;;23.60;99.90;;;;;;5113391;28;20159;-77
2022/07/27 12:48:08;;;;;;;2.83;1.25;;;23.80;99.90;;;;;;5113384;28;20528;-77
2022/07/27 12:50:34;;;;;;;4.22;1.38;;;22.80;99.90;;;;;;5113459;28;20191;-76
2022/07/27 12:53:00;;;;;;;3.53;1.60;;;23.00;99.90;;;;;;5113142;28;20195;-76
2022/07/27 12:55:26;;;;;;;1.70;0.90;;;23.00;99.90;;;;;;5113146;28;20232;-77
2022/07/27 12:57:55;;;;;;;1.58;1.02;;;23.10;99.90;;;;;;5114044;28;20246;-78